Time;durP1;ratioP1;P1;durP2;ratioP2;P2;SDS_P1;SDS_P2;PMS_P1;PMS_P2;Temp;Humidity;BMP_temperature;BMP_pressure;BME280_temperature;BME280_humidity;BME280_pressure;Samples;Min_cycle;Max_cycle;Signal;HPM_P1;HPM_P2
2021/05/25 00:00:27;;;;;;;2.45;1.08;;;10.50;99.90;;;;;;5030382;28;20072;-61
2021/05/25 00:02:54;;;;;;;3.63;1.35;;;10.40;99.90;;;;;;5015349;28;20036;-61
2021/05/25 00:05:27;;;;;;;4.30;1.17;;;10.40;99.90;;;;;;5023861;28;20033;-61
2021/05/25 00:07:55;;;;;;;3.75;1.23;;;10.40;99.90;;;;;;5016606;28;20065;-61
2021/05/25 00:10:31;;;;;;;4.68;1.30;;;10.40;99.90;;;;;;5018696;28;20101;-61
2021/05/25 00:12:57;;;;;;;3.03;1.20;;;10.30;99.90;;;;;;5021132;28;20059;-62
2021/05/25 00:15:26;;;;;;;4.03;1.15;;;10.20;99.90;;;;;;5026542;28;20020;-61
2021/05/25 00:17:52;;;;;;;5.10;1.38;;;10.20;99.90;;;;;;5023579;28;20030;-61
2021/05/25 00:20:20;;;;;;;4.20;1.20;;;10.10;99.90;;;;;;5029244;28;20032;-61
2021/05/25 00:22:47;;;;;;;3.17;1.20;;;10.10;99.90;;;;;;5030473;28;20026;-61
2021/05/25 00:25:14;;;;;;;4.63;1.33;;;10.00;99.90;;;;;;5020526;28;20025;-61
2021/05/25 00:27:41;;;;;;;2.88;1.30;;;10.00;99.90;;;;;;5030453;28;20103;-61
2021/05/25 00:30:10;;;;;;;3.92;1.70;;;10.00;99.90;;;;;;5030473;28;20030;-61
2021/05/25 00:32:36;;;;;;;4.25;1.55;;;10.00;99.90;;;;;;5018438;28;20022;-61
2021/05/25 00:35:03;;;;;;;3.38;1.25;;;10.00;99.90;;;;;;5030992;28;20117;-61
2021/05/25 00:37:28;;;;;;;3.05;1.02;;;10.00;99.90;;;;;;5026963;28;20060;-61
2021/05/25 00:39:54;;;;;;;3.63;1.40;;;9.90;99.90;;;;;;5028569;28;20025;-61
2021/05/25 00:42:19;;;;;;;3.33;1.25;;;10.00;99.90;;;;;;5015970;28;20458;-61
2021/05/25 00:44:45;;;;;;;4.30;1.33;;;9.90;99.90;;;;;;5028767;28;20029;-61
2021/05/25 00:47:11;;;;;;;5.35;1.20;;;9.90;99.90;;;;;;5028542;28;20033;-61
2021/05/25 00:49:36;;;;;;;3.58;0.90;;;9.90;99.90;;;;;;5027422;28;20021;-61
2021/05/25 00:52:02;;;;;;;3.78;1.23;;;9.90;99.90;;;;;;5020402;28;20079;-61
2021/05/25 00:54:28;;;;;;;3.83;1.20;;;9.80;99.90;;;;;;5027535;28;20048;-61
2021/05/25 00:56:55;;;;;;;4.93;1.30;;;9.80;99.90;;;;;;5011078;28;20069;-60
2021/05/25 00:59:21;;;;;;;3.45;1.33;;;9.90;99.90;;;;;;5024311;28;20029;-61
2021/05/25 01:01:47;;;;;;;4.05;1.20;;;9.80;99.90;;;;;;5025889;28;20022;-61
2021/05/25 01:04:13;;;;;;;5.10;1.50;;;9.70;99.90;;;;;;5024253;28;20470;-61
2021/05/25 01:06:38;;;;;;;3.67;1.40;;;9.70;99.90;;;;;;5019403;28;20556;-61
2021/05/25 01:09:04;;;;;;;5.70;1.38;;;9.70;99.90;;;;;;5020691;28;20573;-61
2021/05/25 01:11:35;;;;;;;4.32;1.40;;;9.80;99.90;;;;;;5021759;28;20093;-61
2021/05/25 01:14:02;;;;;;;4.32;1.55;;;9.80;99.90;;;;;;5019269;28;20041;-61
2021/05/25 01:16:29;;;;;;;4.43;1.52;;;9.80;99.90;;;;;;5028656;28;20358;-61
2021/05/25 01:18:57;;;;;;;3.45;1.35;;;9.80;99.90;;;;;;5026078;28;20072;-61
2021/05/25 01:21:25;;;;;;;3.90;1.25;;;9.80;99.90;;;;;;5025348;28;20030;-60
2021/05/25 01:23:50;;;;;;;3.97;1.40;;;9.90;99.90;;;;;;5018051;28;20025;-61
2021/05/25 01:26:17;;;;;;;4.60;1.40;;;9.90;99.90;;;;;;5010564;28;20047;-61
2021/05/25 01:28:48;;;;;;;4.57;1.30;;;10.00;99.90;;;;;;5028733;28;20032;-61
2021/05/25 01:31:14;;;;;;;;;;;9.90;99.90;;;;;;5026966;28;20593;-61
2021/05/25 01:33:40;;;;;;;4.75;1.52;;;9.90;99.90;;;;;;5029316;28;19999;-61
2021/05/25 01:36:11;;;;;;;3.03;1.35;;;9.90;99.90;;;;;;5018546;28;20486;-61
2021/05/25 01:38:37;;;;;;;3.58;1.30;;;10.20;99.90;;;;;;5022941;28;20091;-62
2021/05/25 01:41:04;;;;;;;5.80;1.20;;;10.00;99.90;;;;;;5022615;28;20083;-63
2021/05/25 01:43:30;;;;;;;4.03;1.30;;;10.00;99.90;;;;;;5024871;28;20088;-60
2021/05/25 01:45:56;;;;;;;7.35;1.23;;;9.90;99.90;;;;;;5028251;28;20029;-60
2021/05/25 01:48:22;;;;;;;4.35;1.30;;;9.90;99.90;;;;;;5020938;28;20087;-62
2021/05/25 01:50:48;;;;;;;5.75;1.40;;;9.80;99.90;;;;;;5021614;28;20470;-62
2021/05/25 01:53:17;;;;;;;3.47;1.30;;;9.70;99.90;;;;;;5025849;28;20034;-62
2021/05/25 01:55:48;;;;;;;3.60;1.40;;;9.60;99.90;;;;;;5029189;28;20509;-62
2021/05/25 01:58:27;;;;;;;5.25;1.52;;;9.50;99.90;;;;;;5023982;28;20094;-62
2021/05/25 02:00:56;;;;;;;3.45;1.33;;;9.40;99.90;;;;;;5028483;28;20022;-62
2021/05/25 02:03:22;;;;;;;3.92;1.23;;;9.50;99.90;;;;;;5022562;28;20025;-62
2021/05/25 02:05:48;;;;;;;3.08;1.30;;;9.40;99.90;;;;;;5028092;28;20021;-62
2021/05/25 02:08:16;;;;;;;3.97;1.50;;;9.40;99.90;;;;;;5027246;28;20045;-62
2021/05/25 02:10:47;;;;;;;3.92;1.40;;;9.40;99.90;;;;;;5025901;28;20125;-61
2021/05/25 02:13:18;;;;;;;4.00;1.40;;;9.40;99.90;;;;;;5023333;28;20022;-62
2021/05/25 02:15:47;;;;;;;3.50;1.20;;;9.50;99.90;;;;;;5025346;28;20059;-61
2021/05/25 02:18:18;;;;;;;2.80;1.10;;;9.40;99.90;;;;;;5023168;28;20190;-61
2021/05/25 02:20:46;;;;;;;4.22;1.50;;;9.50;99.90;;;;;;5024366;28;20021;-61
2021/05/25 02:23:12;;;;;;;3.78;1.25;;;9.50;99.90;;;;;;5001777;28;20560;-61
2021/05/25 02:25:38;;;;;;;4.30;1.30;;;9.40;99.90;;;;;;5022597;28;20505;-62
2021/05/25 02:28:05;;;;;;;4.70;1.50;;;9.40;99.90;;;;;;5024844;28;20116;-62
2021/05/25 02:30:32;;;;;;;4.13;1.30;;;9.40;99.90;;;;;;5027587;28;20017;-61
2021/05/25 02:32:59;;;;;;;3.97;1.35;;;9.40;99.90;;;;;;5023729;28;20082;-61
2021/05/25 02:35:26;;;;;;;2.95;1.10;;;9.40;99.90;;;;;;5029317;28;20028;-62
2021/05/25 02:37:52;;;;;;;2.60;1.17;;;9.20;99.90;;;;;;5026899;28;20127;-61
2021/05/25 02:40:18;;;;;;;3.38;1.17;;;9.20;99.90;;;;;;5019268;28;20044;-61
2021/05/25 02:42:44;;;;;;;2.17;1.05;;;9.10;99.90;;;;;;5025926;28;20021;-62
2021/05/25 02:45:11;;;;;;;4.03;1.20;;;9.20;99.90;;;;;;5024065;28;20030;-61
2021/05/25 02:47:37;;;;;;;4.25;1.35;;;9.20;99.90;;;;;;5028602;28;20033;-62
2021/05/25 02:50:07;;;;;;;5.53;1.52;;;9.20;99.90;;;;;;5012456;28;20035;-62
2021/05/25 02:52:34;;;;;;;;;;;9.20;99.90;;;;;;5026653;28;20108;-61
2021/05/25 02:54:59;;;;;;;10.65;1.58;;;9.10;99.90;;;;;;5015500;28;19924;-62
2021/05/25 02:57:25;;;;;;;5.00;1.65;;;9.20;99.90;;;;;;5025781;28;20030;-62
2021/05/25 02:59:50;;;;;;;5.13;1.17;;;9.20;99.90;;;;;;5026175;28;20029;-61
2021/05/25 03:02:16;;;;;;;5.03;1.40;;;9.30;99.90;;;;;;5022709;28;20497;-61
2021/05/25 03:04:41;;;;;;;6.22;2.15;;;9.30;99.90;;;;;;5025499;28;20125;-61
2021/05/25 03:07:07;;;;;;;6.00;1.27;;;9.30;99.90;;;;;;5019040;28;20493;-62
2021/05/25 03:09:33;;;;;;;7.75;1.20;;;9.30;99.90;;;;;;5027420;28;20120;-62
2021/05/25 03:11:58;;;;;;;5.65;1.42;;;9.30;99.90;;;;;;5024367;28;20026;-62
2021/05/25 03:14:24;;;;;;;2.28;1.00;;;9.40;99.90;;;;;;5011877;28;20025;-62
2021/05/25 03:16:50;;;;;;;2.20;1.02;;;9.40;99.90;;;;;;5025332;28;20079;-62
2021/05/25 03:19:15;;;;;;;4.68;1.23;;;9.40;99.90;;;;;;5027611;28;20517;-61
2021/05/25 03:21:41;;;;;;;3.95;1.15;;;9.40;99.90;;;;;;5021683;28;20025;-62
2021/05/25 03:24:07;;;;;;;3.28;1.15;;;9.40;99.90;;;;;;5025317;28;20036;-62
2021/05/25 03:26:32;;;;;;;3.60;1.10;;;9.40;99.90;;;;;;5023918;28;20068;-62
2021/05/25 03:28:58;;;;;;;2.78;1.25;;;9.50;99.90;;;;;;5025693;28;20050;-62
2021/05/25 03:31:24;;;;;;;4.68;1.30;;;9.50;99.90;;;;;;5015661;28;20416;-62
2021/05/25 03:33:49;;;;;;;3.72;1.27;;;9.50;99.90;;;;;;5019344;28;20036;-62
2021/05/25 03:36:15;;;;;;;4.80;1.33;;;9.40;99.90;;;;;;5016507;28;20473;-62
2021/05/25 03:38:40;;;;;;;4.47;1.10;;;9.50;99.90;;;;;;5030870;28;20041;-62
2021/05/25 03:41:06;;;;;;;2.63;1.00;;;9.50;99.90;;;;;;5028219;28;20823;-62
2021/05/25 03:43:31;;;;;;;3.13;1.17;;;9.40;99.90;;;;;;5031053;28;20033;-61
2021/05/25 03:45:57;;;;;;;2.03;1.08;;;9.20;99.90;;;;;;5026917;28;20496;-61
2021/05/25 03:48:23;;;;;;;3.95;1.30;;;8.90;99.90;;;;;;5029384;28;20045;-61
2021/05/25 03:50:48;;;;;;;2.50;1.10;;;8.70;99.90;;;;;;5028569;28;20028;-61
2021/05/25 03:53:14;;;;;;;5.28;1.40;;;8.60;99.90;;;;;;5025629;28;20064;-61
2021/05/25 03:56:47;;;;;;;2.65;1.20;;;8.50;99.90;;;;;;5020635;28;20201;-61
2021/05/25 03:58:52;;;;;;;5.88;1.40;;;8.40;99.90;;;;;;5012749;28;20046;-61
2021/05/25 04:01:23;;;;;;;2.53;1.00;;;8.40;99.90;;;;;;5018542;28;20033;-61
2021/05/25 04:03:54;;;;;;;2.85;1.10;;;8.40;99.90;;;;;;5021973;28;20401;-61
2021/05/25 04:06:20;;;;;;;3.60;1.40;;;8.30;99.90;;;;;;5015358;28;20034;-61
2021/05/25 04:08:47;;;;;;;5.38;1.33;;;8.30;99.90;;;;;;5022264;28;20563;-61
2021/05/25 04:11:13;;;;;;;4.22;1.30;;;8.30;99.90;;;;;;5020978;28;20025;-61
2021/05/25 04:13:39;;;;;;;3.42;1.10;;;8.20;99.90;;;;;;5024075;28;20498;-60
2021/05/25 04:16:08;;;;;;;5.07;1.30;;;8.10;99.90;;;;;;5024453;28;20044;-60
2021/05/25 04:18:33;;;;;;;4.13;1.40;;;8.20;99.90;;;;;;5021462;28;20030;-61
2021/05/25 04:20:59;;;;;;;4.45;1.30;;;8.30;99.90;;;;;;5016684;28;20025;-61
2021/05/25 04:23:25;;;;;;;3.00;1.20;;;8.30;99.90;;;;;;5020227;28;20036;-61
2021/05/25 04:25:51;;;;;;;3.28;1.27;;;8.40;99.90;;;;;;5017156;28;20037;-61
2021/05/25 04:28:17;;;;;;;3.55;1.33;;;8.40;99.90;;;;;;5015101;28;20397;-61
2021/05/25 04:30:43;;;;;;;5.05;1.30;;;8.40;99.90;;;;;;5017076;28;20029;-61
2021/05/25 04:33:09;;;;;;;3.35;1.30;;;8.50;99.90;;;;;;5021491;28;20026;-61
2021/05/25 04:35:35;;;;;;;2.47;1.20;;;8.50;99.90;;;;;;5015858;28;20028;-61
2021/05/25 04:38:02;;;;;;;4.90;1.10;;;8.60;99.90;;;;;;5014904;28;20038;-61
2021/05/25 04:40:29;;;;;;;3.53;1.30;;;8.60;99.90;;;;;;5011052;28;20024;-61
2021/05/25 04:42:55;;;;;;;2.90;1.27;;;8.60;99.90;;;;;;5015505;28;20049;-60
2021/05/25 04:45:22;;;;;;;2.95;1.10;;;8.60;99.90;;;;;;5019725;28;20025;-60
2021/05/25 04:47:48;;;;;;;3.00;1.02;;;8.50;99.90;;;;;;5021180;28;20096;-61
2021/05/25 04:50:14;;;;;;;3.22;1.23;;;8.40;99.90;;;;;;5028914;28;20061;-61
2021/05/25 04:52:40;;;;;;;3.47;1.17;;;8.40;99.90;;;;;;5024077;28;20401;-61
2021/05/25 04:55:09;;;;;;;2.15;1.00;;;8.40;99.90;;;;;;5013620;28;20049;-61
2021/05/25 04:57:35;;;;;;;3.65;1.50;;;8.30;99.90;;;;;;5020141;28;20032;-61
2021/05/25 05:00:01;;;;;;;3.72;1.10;;;8.30;99.90;;;;;;5016521;28;20033;-60
2021/05/25 05:02:26;;;;;;;3.85;1.42;;;8.30;99.90;;;;;;5008100;28;20405;-60
2021/05/25 05:04:52;;;;;;;3.38;1.25;;;8.20;99.90;;;;;;5011355;28;20173;-60
2021/05/25 05:07:18;;;;;;;3.13;1.20;;;8.30;99.90;;;;;;5012853;28;20034;-60
2021/05/25 05:09:44;;;;;;;3.47;1.40;;;8.30;99.90;;;;;;5015345;28;20501;-61
2021/05/25 05:12:09;;;;;;;5.13;1.40;;;8.30;99.90;;;;;;5014100;28;20030;-61
2021/05/25 05:14:35;;;;;;;4.65;1.75;;;8.30;99.90;;;;;;5015289;28;20032;-61
2021/05/25 05:17:02;;;;;;;3.95;1.40;;;8.40;99.90;;;;;;5015641;28;20532;-61
2021/05/25 05:19:27;;;;;;;3.85;1.42;;;8.40;99.90;;;;;;5007502;28;20030;-61
2021/05/25 05:21:53;;;;;;;4.03;1.30;;;8.40;99.90;;;;;;5014730;28;20053;-61
2021/05/25 05:24:19;;;;;;;6.35;1.63;;;8.50;99.90;;;;;;5018136;28;20029;-61
2021/05/25 05:26:44;;;;;;;1.80;1.00;;;8.50;99.90;;;;;;5024930;28;20430;-62
2021/05/25 05:29:10;;;;;;;3.78;1.67;;;8.60;99.90;;;;;;5019193;28;20076;-61
2021/05/25 05:31:36;;;;;;;2.53;1.20;;;8.70;99.90;;;;;;5022161;28;20048;-61
2021/05/25 05:34:02;;;;;;;3.40;1.23;;;8.70;99.90;;;;;;5004643;28;20437;-61
2021/05/25 05:36:27;;;;;;;5.78;1.38;;;8.70;99.90;;;;;;5025803;28;20116;-61
2021/05/25 05:38:53;;;;;;;2.50;1.10;;;8.70;99.90;;;;;;5015239;28;20104;-60
2021/05/25 05:41:19;;;;;;;2.28;1.08;;;8.80;99.90;;;;;;5009972;28;20388;-60
2021/05/25 05:43:44;;;;;;;2.13;0.98;;;8.90;99.90;;;;;;5022884;28;20057;-60
2021/05/25 05:46:10;;;;;;;1.67;1.00;;;8.80;99.90;;;;;;5007468;28;20511;-61
2021/05/25 05:48:36;;;;;;;4.28;1.17;;;8.80;99.90;;;;;;5018623;28;20040;-61
2021/05/25 05:51:02;;;;;;;2.47;1.00;;;8.80;99.90;;;;;;5018572;28;20030;-60
2021/05/25 05:53:28;;;;;;;2.97;1.00;;;8.70;99.90;;;;;;5020862;28;20364;-61
2021/05/25 05:55:53;;;;;;;3.63;1.20;;;8.60;99.90;;;;;;5019082;28;20052;-61
2021/05/25 05:58:19;;;;;;;3.28;1.40;;;8.60;99.90;;;;;;5012830;28;20068;-61
2021/05/25 06:00:45;;;;;;;3.35;1.38;;;8.80;99.90;;;;;;5022345;28;20435;-61
2021/05/25 06:03:14;;;;;;;3.33;1.30;;;8.80;99.90;;;;;;5015875;28;20464;-61
2021/05/25 06:05:40;;;;;;;2.92;1.15;;;8.90;99.90;;;;;;5018130;28;20104;-60
2021/05/25 06:08:09;;;;;;;3.63;1.40;;;8.90;99.90;;;;;;5010017;28;20398;-60
2021/05/25 06:10:36;;;;;;;3.40;1.40;;;8.90;99.90;;;;;;4998588;28;20203;-60
2021/05/25 06:13:03;;;;;;;5.30;1.70;;;9.00;99.90;;;;;;5017656;28;20112;-61
2021/05/25 06:15:29;;;;;;;3.83;1.50;;;9.20;99.90;;;;;;5022344;28;20052;-61
2021/05/25 06:17:54;;;;;;;4.40;1.50;;;9.20;99.90;;;;;;5019687;28;20137;-61
2021/05/25 06:20:20;;;;;;;5.07;1.77;;;9.30;99.90;;;;;;4981983;28;20502;-62
2021/05/25 06:22:46;;;;;;;3.58;1.40;;;9.40;99.90;;;;;;5019724;28;20033;-60
2021/05/25 06:25:13;;;;;;;3.78;1.50;;;9.50;99.90;;;;;;5013017;28;20027;-61
2021/05/25 06:27:40;;;;;;;4.60;1.67;;;9.60;99.90;;;;;;5022017;28;20053;-61
2021/05/25 06:30:08;;;;;;;4.80;1.85;;;9.50;99.90;;;;;;5021103;28;20029;-61
2021/05/25 06:32:36;;;;;;;5.55;1.92;;;9.60;99.90;;;;;;5023525;28;20030;-61
2021/05/25 06:35:03;;;;;;;3.88;1.65;;;9.70;99.90;;;;;;5018422;28;20120;-61
2021/05/25 06:37:28;;;;;;;7.28;2.20;;;9.70;99.90;;;;;;5011484;28;20485;-61
2021/05/25 06:39:54;;;;;;;5.13;2.10;;;9.80;99.90;;;;;;5021774;28;20044;-61
2021/05/25 06:42:20;;;;;;;5.50;2.00;;;10.00;99.90;;;;;;5021130;28;20025;-61
2021/05/25 06:44:45;;;;;;;4.35;2.05;;;10.20;99.90;;;;;;5023644;28;20447;-61
2021/05/25 06:47:11;;;;;;;4.32;1.52;;;10.30;99.90;;;;;;5023622;28;20030;-61
2021/05/25 06:49:39;;;;;;;5.25;1.90;;;10.50;99.90;;;;;;5026133;28;20086;-61
2021/05/25 06:52:09;;;;;;;4.50;1.70;;;10.40;99.90;;;;;;5018828;28;20053;-61
2021/05/25 06:54:34;;;;;;;5.72;1.83;;;10.40;99.90;;;;;;5021548;28;20037;-61
2021/05/25 06:57:00;;;;;;;5.07;1.70;;;10.50;99.90;;;;;;5024646;28;20036;-61
2021/05/25 06:59:26;;;;;;;3.20;1.40;;;10.80;99.90;;;;;;5026061;28;20097;-61
2021/05/25 07:01:53;;;;;;;5.45;1.98;;;10.60;99.90;;;;;;5026407;28;20130;-61
2021/05/25 07:04:20;;;;;;;3.70;1.40;;;10.40;99.90;;;;;;5023849;28;20056;-61
2021/05/25 07:06:45;;;;;;;4.00;1.48;;;10.30;99.90;;;;;;5016997;28;20053;-60
2021/05/25 07:09:12;;;;;;;5.10;1.50;;;10.40;99.90;;;;;;5029766;28;20159;-60
2021/05/25 07:11:37;;;;;;;4.32;1.50;;;10.70;99.90;;;;;;5026641;28;20022;-60
2021/05/25 07:14:03;;;;;;;3.35;1.30;;;10.80;99.90;;;;;;5027576;28;20048;-60
2021/05/25 07:16:29;;;;;;;4.70;1.65;;;11.00;99.90;;;;;;5030883;28;20523;-60
2021/05/25 07:18:54;;;;;;;4.00;1.40;;;10.80;99.90;;;;;;5030838;28;20496;-60
2021/05/25 07:21:20;;;;;;;2.97;1.27;;;11.10;99.90;;;;;;5022735;28;20026;-60
2021/05/25 07:23:45;;;;;;;3.50;1.40;;;11.20;99.90;;;;;;5022579;28;20491;-60
2021/05/25 07:26:11;;;;;;;4.63;1.65;;;11.10;99.90;;;;;;5029536;28;20022;-60
2021/05/25 07:28:37;;;;;;;3.50;1.20;;;10.80;99.90;;;;;;5022995;28;21902;-60
2021/05/25 07:31:03;;;;;;;4.90;1.70;;;10.40;99.90;;;;;;5025371;28;20458;-60
2021/05/25 07:33:28;;;;;;;3.65;1.55;;;10.20;99.90;;;;;;5018456;28;20365;-60
2021/05/25 07:35:54;;;;;;;4.25;1.70;;;10.10;99.90;;;;;;5010704;28;20033;-60
2021/05/25 07:38:21;;;;;;;7.10;2.03;;;10.00;99.90;;;;;;5023375;28;20034;-60
2021/05/25 07:40:47;;;;;;;4.20;1.60;;;9.80;99.90;;;;;;5027736;28;20120;-60
2021/05/25 07:43:13;;;;;;;4.32;1.83;;;9.70;99.90;;;;;;5029315;28;20113;-61
2021/05/25 07:45:39;;;;;;;5.03;1.77;;;9.70;99.90;;;;;;4992389;28;20088;-61
2021/05/25 07:48:05;;;;;;;4.05;1.55;;;9.50;99.90;;;;;;5027723;28;20041;-61
2021/05/25 07:50:31;;;;;;;3.92;1.45;;;9.40;99.90;;;;;;5029269;28;20029;-61
2021/05/25 07:52:57;;;;;;;4.30;1.58;;;9.30;99.90;;;;;;5026401;28;20456;-61
2021/05/25 07:55:28;;;;;;;3.63;1.50;;;9.30;99.90;;;;;;5022761;28;20100;-61
2021/05/25 07:57:55;;;;;;;4.32;1.60;;;9.10;99.90;;;;;;5025336;28;20060;-61
2021/05/25 08:00:22;;;;;;;2.55;1.10;;;8.90;99.90;;;;;;5020527;28;20432;-61
2021/05/25 08:02:48;;;;;;;4.72;1.50;;;8.80;99.90;;;;;;5015406;28;20356;-61
2021/05/25 08:05:16;;;;;;;3.67;1.40;;;8.90;99.90;;;;;;5030570;28;20038;-61
2021/05/25 08:07:42;;;;;;;4.53;1.50;;;8.90;99.90;;;;;;5029331;28;20124;-61
2021/05/25 08:10:10;;;;;;;5.30;1.60;;;9.00;99.90;;;;;;5019878;28;20124;-61
2021/05/25 08:12:36;;;;;;;3.03;1.45;;;9.20;99.90;;;;;;5019280;28;20024;-61
2021/05/25 08:15:06;;;;;;;3.92;1.30;;;9.40;99.90;;;;;;5028297;28;20038;-61
2021/05/25 08:20:16;;;;;;;5.68;1.77;;;9.20;99.90;;;;;;5029329;28;20104;-61
2021/05/25 08:22:51;;;;;;;5.82;1.80;;;9.20;99.90;;;;;;5029178;28;20048;-61
2021/05/25 08:25:18;;;;;;;4.65;1.83;;;;;;;;;;5016889;28;20037;-61
2021/05/25 08:27:46;;;;;;;3.85;1.42;;;9.10;99.90;;;;;;5022809;28;20069;-61
2021/05/25 08:30:13;;;;;;;6.22;2.30;;;9.10;99.90;;;;;;5020630;28;20037;-60
2021/05/25 08:32:39;;;;;;;6.07;2.60;;;9.00;99.90;;;;;;5021137;28;20598;-61
2021/05/25 08:35:05;;;;;;;6.40;2.53;;;9.10;99.90;;;;;;5029431;28;20064;-61
2021/05/25 08:37:33;;;;;;;6.68;2.40;;;9.50;99.90;;;;;;5007667;28;20515;-61
2021/05/25 08:39:59;;;;;;;5.68;2.05;;;9.50;99.90;;;;;;5017976;28;20541;-61
2021/05/25 08:42:25;;;;;;;6.80;2.20;;;9.30;99.90;;;;;;5025859;28;20037;-61
2021/05/25 08:44:50;;;;;;;8.15;1.88;;;9.30;99.90;;;;;;5021570;28;20029;-61
2021/05/25 08:47:16;;;;;;;5.68;2.10;;;9.40;99.90;;;;;;5026055;28;20560;-61
2021/05/25 08:49:45;;;;;;;5.47;2.20;;;9.40;99.90;;;;;;5025769;28;20079;-61
2021/05/25 08:52:10;;;;;;;4.72;1.73;;;9.90;99.90;;;;;;5028455;28;20033;-61
2021/05/25 08:54:39;;;;;;;3.78;1.48;;;10.00;99.90;;;;;;5021859;28;20057;-61
2021/05/25 08:57:05;;;;;;;4.05;1.67;;;10.20;99.90;;;;;;5021553;28;20029;-61
2021/05/25 08:59:30;;;;;;;6.03;2.28;;;10.30;99.90;;;;;;5023437;28;20029;-61
2021/05/25 09:01:56;;;;;;;6.20;2.10;;;10.50;99.90;;;;;;5025915;28;20025;-61
2021/05/25 09:04:22;;;;;;;5.13;1.92;;;10.90;99.90;;;;;;5020813;28;20566;-62
2021/05/25 09:06:49;;;;;;;6.00;2.47;;;11.20;99.90;;;;;;5004928;28;20025;-61
2021/05/25 09:09:21;;;;;;;6.68;2.00;;;12.00;99.90;;;;;;5022651;28;20568;-61
2021/05/25 09:12:05;;;;;;;6.38;2.00;;;11.70;99.90;;;;;;5024837;28;20036;-61
2021/05/25 09:14:33;;;;;;;9.00;2.67;;;11.10;99.90;;;;;;5023262;28;20025;-61
2021/05/25 09:17:25;;;;;;;7.00;2.83;;;11.30;99.90;;;;;;5026200;28;20018;-61
2021/05/25 09:19:52;;;;;;;7.60;3.00;;;11.30;99.90;;;;;;5028034;28;20034;-61
2021/05/25 09:22:31;;;;;;;6.15;2.78;;;11.50;99.90;;;;;;5020866;28;20036;-61
2021/05/25 09:25:04;;;;;;;6.15;2.75;;;11.70;99.90;;;;;;5022867;28;20014;-61
2021/05/25 09:27:36;;;;;;;7.03;2.83;;;11.20;99.90;;;;;;5020600;28;20501;-61
2021/05/25 09:30:13;;;;;;;5.43;2.45;;;10.80;99.90;;;;;;5024543;28;20029;-61
2021/05/25 09:32:52;;;;;;;4.60;2.08;;;10.80;99.90;;;;;;5019801;28;20030;-62
2021/05/25 09:35:21;;;;;;;6.80;2.75;;;10.80;99.90;;;;;;5011340;28;20037;-61
2021/05/25 09:37:49;;;;;;;7.78;3.20;;;10.90;99.90;;;;;;5027736;28;20424;-61
2021/05/25 09:40:17;;;;;;;6.05;3.05;;;10.90;99.90;;;;;;5012504;28;20034;-61
2021/05/25 09:42:44;;;;;;;6.80;2.90;;;11.00;99.90;;;;;;5022236;28;20381;-61
2021/05/25 09:45:13;;;;;;;11.45;3.85;;;11.40;99.90;;;;;;5023783;28;20389;-61
2021/05/25 09:47:43;;;;;;;7.97;3.78;;;11.60;99.90;;;;;;5023010;28;20029;-61
2021/05/25 09:50:14;;;;;;;9.30;4.43;;;12.30;99.90;;;;;;5014154;28;20033;-61
2021/05/25 09:52:59;;;;;;;8.88;3.92;;;12.60;99.90;;;;;;5018041;28;20462;-61
2021/05/25 09:55:25;;;;;;;9.60;3.75;;;12.90;99.90;;;;;;5011233;28;20065;-61
2021/05/25 09:57:54;;;;;;;7.72;3.72;;;12.70;99.90;;;;;;5020617;28;20051;-61
2021/05/25 10:00:28;;;;;;;8.25;3.35;;;13.50;99.90;;;;;;4999819;28;20530;-61
2021/05/25 10:03:15;;;;;;;6.40;2.63;;;13.30;99.90;;;;;;5015258;28;20044;-61
2021/05/25 10:05:48;;;;;;;5.13;2.10;;;12.70;99.90;;;;;;5012103;28;20400;-60
2021/05/25 10:08:15;;;;;;;4.32;1.95;;;12.50;99.90;;;;;;5018083;28;20041;-61
2021/05/25 10:10:42;;;;;;;10.20;2.80;;;13.10;99.90;;;;;;5013985;28;20266;-60
2021/05/25 10:13:09;;;;;;;9.98;3.00;;;13.50;99.90;;;;;;5012702;28;20037;-61
2021/05/25 10:15:36;;;;;;;6.45;2.88;;;13.30;99.90;;;;;;5015539;28;20482;-60
2021/05/25 10:20:33;;;;;;;7.15;3.00;;;13.50;99.90;;;;;;5018758;28;20037;-61
2021/05/25 10:22:58;;;;;;;9.60;2.35;;;15.10;99.90;;;;;;5011354;28;20022;-61
2021/05/25 10:25:30;;;;;;;6.40;2.40;;;15.30;99.90;;;;;;5009658;28;20488;-61
2021/05/25 10:27:57;;;;;;;6.25;2.72;;;14.50;99.90;;;;;;5012265;28;20036;-61
2021/05/25 10:30:26;;;;;;;7.32;2.30;;;13.90;99.90;;;;;;5015306;28;20405;-61
2021/05/25 10:33:12;;;;;;;5.80;2.20;;;13.40;99.90;;;;;;5025965;28;20029;-61
2021/05/25 10:35:54;;;;;;;6.72;2.40;;;13.20;99.90;;;;;;5020109;28;20040;-61
2021/05/25 10:38:23;;;;;;;7.00;2.83;;;13.70;99.90;;;;;;5007756;28;20307;-61
2021/05/25 10:40:58;;;;;;;6.65;2.50;;;14.30;99.90;;;;;;5028126;28;20102;-60
2021/05/25 10:43:33;;;;;;;5.95;2.47;;;14.40;99.90;;;;;;5022878;28;20103;-61
2021/05/25 10:46:10;;;;;;;5.30;2.28;;;15.60;99.90;;;;;;5022492;28;20481;-60
2021/05/25 10:48:54;;;;;;;7.50;3.05;;;14.00;99.90;;;;;;5021769;28;20057;-61
2021/05/25 10:51:20;;;;;;;5.70;2.45;;;13.40;99.90;;;;;;5017805;28;20064;-61
2021/05/25 10:54:05;;;;;;;6.38;2.30;;;13.00;99.90;;;;;;5029774;28;20025;-61
2021/05/25 10:56:36;;;;;;;5.65;2.00;;;12.40;99.90;;;;;;5024488;28;20039;-60
2021/05/25 10:59:05;;;;;;;9.75;2.88;;;12.50;99.90;;;;;;5028689;28;20033;-61
2021/05/25 11:01:32;;;;;;;5.50;2.38;;;12.80;99.90;;;;;;5027666;28;20112;-61
2021/05/25 11:04:12;;;;;;;5.13;2.08;;;12.70;99.90;;;;;;5028291;28;20033;-61
2021/05/25 11:06:39;;;;;;;6.43;1.85;;;12.80;99.90;;;;;;5028470;28;20022;-61
2021/05/25 11:09:28;;;;;;;5.53;2.20;;;12.10;99.90;;;;;;5026890;28;20052;-60
2021/05/25 11:12:16;;;;;;;4.82;2.03;;;11.40;99.90;;;;;;5027677;28;20041;-60
2021/05/25 11:15:16;;;;;;;5.68;2.00;;;10.90;99.90;;;;;;5027437;28;20271;-60
2021/05/25 11:17:45;;;;;;;;;;;10.10;99.90;;;;;;5028581;28;20336;-60
2021/05/25 11:20:30;;;;;;;6.25;2.50;;;9.90;99.90;;;;;;5027831;28;19909;-60
2021/05/25 11:22:56;;;;;;;8.23;2.78;;;10.10;99.90;;;;;;5029160;28;20026;-60
2021/05/25 11:25:40;;;;;;;5.97;2.53;;;10.30;99.90;;;;;;5028249;28;20682;-60
2021/05/25 11:28:06;;;;;;;6.25;2.58;;;10.60;99.90;;;;;;5028177;28;20203;-60
2021/05/25 11:30:33;;;;;;;7.60;3.30;;;10.70;99.90;;;;;;5026703;28;20148;-60
2021/05/25 11:33:02;;;;;;;8.32;2.47;;;11.20;99.90;;;;;;5026587;28;20029;-61
2021/05/25 11:35:29;;;;;;;8.82;2.90;;;11.60;99.90;;;;;;5027175;28;21762;-61
2021/05/25 11:37:59;;;;;;;6.88;2.80;;;11.60;99.90;;;;;;5027516;28;20025;-61
2021/05/25 11:40:28;;;;;;;6.18;2.28;;;11.40;99.90;;;;;;5026949;28;20466;-61
2021/05/25 11:42:55;;;;;;;8.60;2.80;;;11.50;99.90;;;;;;5027024;28;20048;-61
2021/05/25 11:45:24;;;;;;;7.18;2.85;;;11.10;99.90;;;;;;5027763;28;20272;-61
2021/05/25 11:47:57;;;;;;;6.10;2.65;;;11.00;99.90;;;;;;5026746;28;20473;-60
2021/05/25 11:50:24;;;;;;;7.82;3.30;;;10.90;99.90;;;;;;5028833;28;20021;-61
2021/05/25 11:52:51;;;;;;;8.05;4.07;;;10.70;99.90;;;;;;5028383;28;20026;-60
2021/05/25 11:55:20;;;;;;;6.18;3.03;;;10.50;99.90;;;;;;5027651;28;20103;-61
2021/05/25 11:57:48;;;;;;;4.82;2.03;;;10.40;99.90;;;;;;5026699;28;20507;-61
2021/05/25 12:00:27;;;;;;;5.57;2.08;;;10.10;99.90;;;;;;5028132;28;20017;-61
2021/05/25 12:02:55;;;;;;;5.10;1.93;;;9.90;99.90;;;;;;5027810;28;20041;-60
2021/05/25 12:05:25;;;;;;;4.28;1.48;;;9.70;99.90;;;;;;5028015;28;20112;-61
2021/05/25 12:07:50;;;;;;;4.70;1.80;;;9.40;99.90;;;;;;5026117;28;20028;-60
2021/05/25 12:10:19;;;;;;;6.22;1.90;;;9.30;99.90;;;;;;5028880;28;20059;-61
2021/05/25 12:12:46;;;;;;;5.45;1.80;;;9.10;99.90;;;;;;5027444;28;20017;-61
2021/05/25 12:15:26;;;;;;;6.43;2.22;;;9.10;99.90;;;;;;5026785;28;20033;-61
2021/05/25 12:17:56;;;;;;;7.25;2.40;;;9.00;99.90;;;;;;5010579;28;20069;-61
2021/05/25 12:20:41;;;;;;;5.00;1.92;;;9.20;99.90;;;;;;5027676;28;20029;-61
2021/05/25 12:23:09;;;;;;;8.50;2.55;;;9.40;99.90;;;;;;5029048;28;20108;-61
2021/05/25 12:25:35;;;;;;;6.63;2.70;;;9.60;99.90;;;;;;5026160;28;20041;-61
2021/05/25 12:28:14;;;;;;;7.00;3.05;;;9.90;99.90;;;;;;5020421;28;20548;-61
2021/05/25 12:30:44;;;;;;;6.97;2.95;;;10.50;99.90;;;;;;5025668;28;20485;-61
2021/05/25 12:33:21;;;;;;;6.75;2.97;;;11.20;99.90;;;;;;5019500;28;20029;-61
2021/05/25 12:35:48;;;;;;;8.88;3.40;;;12.00;99.90;;;;;;5023579;28;20037;-61
2021/05/25 12:38:16;;;;;;;7.85;3.13;;;12.70;99.90;;;;;;5015655;28;20025;-61
2021/05/25 12:41:01;;;;;;;7.22;2.95;;;13.70;99.90;;;;;;5027696;28;20009;-61
2021/05/25 12:43:29;;;;;;;7.90;3.67;;;14.30;99.90;;;;;;5014110;28;20032;-62
2021/05/25 12:46:06;;;;;;;9.32;3.30;;;14.30;99.90;;;;;;5018288;28;20022;-61
2021/05/25 12:48:34;;;;;;;7.53;2.92;;;15.70;99.90;;;;;;5029651;28;20102;-61
2021/05/25 12:51:00;;;;;;;8.23;3.00;;;16.50;99.90;;;;;;5026558;28;20044;-61
2021/05/25 12:53:25;;;;;;;6.20;2.90;;;15.80;99.90;;;;;;5021824;28;20505;-61
2021/05/25 12:56:02;;;;;;;7.82;2.83;;;16.00;99.90;;;;;;5023384;28;20439;-61
2021/05/25 12:58:44;;;;;;;7.07;3.20;;;16.50;99.90;;;;;;5028117;28;20049;-61
2021/05/25 13:01:31;;;;;;;12.07;3.30;;;15.80;99.90;;;;;;5022687;28;20026;-61
2021/05/25 13:04:02;;;;;;;8.13;3.60;;;15.30;99.90;;;;;;5021031;28;20022;-61